createdAt,value
2023-02-21T00:00:13.567Z,61.14
2023-02-21T00:03:30.329Z,61.06
2023-02-21T00:06:22.409Z,61.12
2023-02-21T00:09:22.303Z,61.23
2023-02-21T00:12:31.754Z,61.39
2023-02-21T00:15:41.374Z,61.41
2023-02-21T00:18:53.939Z,61.50
2023-02-21T00:21:52.747Z,61.43
2023-02-21T00:25:02.419Z,61.41
2023-02-21T00:28:12.007Z,61.51
2023-02-21T00:31:16.882Z,61.49
2023-02-21T00:34:26.873Z,61.46
2023-02-21T00:37:21.550Z,61.67
2023-02-21T00:40:14.078Z,61.90
2023-02-21T00:43:24.067Z,62.78
2023-02-21T00:46:30.523Z,63.18
2023-02-21T00:49:24.370Z,63.42
2023-02-21T00:52:34.354Z,63.77
2023-02-21T00:55:24.676Z,64.39
2023-02-21T00:58:34.274Z,64.70
2023-02-21T01:01:34.298Z,64.96
2023-02-21T01:04:24.371Z,65.12
2023-02-21T01:07:33.851Z,65.37
2023-02-21T01:10:43.567Z,65.77
2023-02-21T01:13:53.222Z,65.86
2023-02-21T01:17:12.541Z,66.27
2023-02-21T01:20:23.216Z,66.46
2023-02-21T01:23:32.853Z,66.98
2023-02-21T01:26:42.769Z,67.09
2023-02-21T01:29:52.648Z,67.55
2023-02-21T01:32:51.351Z,67.99
2023-02-21T01:36:01.560Z,68.32
2023-02-21T01:39:11.201Z,68.66
2023-02-21T01:42:21.459Z,68.79
2023-02-21T01:46:05.261Z,69.13
2023-02-21T01:49:04.545Z,69.28
2023-02-21T01:52:16.104Z,69.35
2023-02-21T01:55:26.663Z,69.69
2023-02-21T01:58:37.440Z,69.80
2023-02-21T02:01:56.374Z,70.24
2023-02-21T02:05:08.497Z,70.63
2023-02-21T02:08:18.387Z,71.14
2023-02-21T02:11:39.334Z,71.29
2023-02-21T02:14:47.763Z,71.53
2023-02-21T02:17:50.507Z,72.01
2023-02-21T02:21:03.017Z,72.27
2023-02-21T02:24:23.173Z,72.48
2023-02-21T02:27:42.951Z,72.57
2023-02-21T02:31:12.890Z,72.68
2023-02-21T02:34:48.468Z,72.87
2023-02-21T02:37:50.415Z,73.03
2023-02-21T02:40:53.196Z,73.21
2023-02-21T02:43:52.314Z,73.16
2023-02-21T02:46:47.273Z,73.36
2023-02-21T02:49:43.727Z,73.40
2023-02-21T02:52:38.802Z,73.55
2023-02-21T02:55:40.591Z,73.61
2023-02-21T02:58:33.415Z,73.98
2023-02-21T03:01:48.352Z,74.12
2023-02-21T03:05:25.862Z,74.16
2023-02-21T03:08:15.986Z,74.38
2023-02-21T03:11:16.314Z,74.41
2023-02-21T03:13:59.256Z,74.19
2023-02-21T03:16:56.968Z,74.39
2023-02-21T03:19:52.226Z,74.36
2023-02-21T03:22:47.420Z,74.50
2023-02-21T03:25:41.245Z,74.52
2023-02-21T03:28:34.915Z,74.61
2023-02-21T03:31:32.129Z,74.49
2023-02-21T03:34:14.780Z,74.64
2023-02-21T03:36:50.174Z,74.52
2023-02-21T03:39:24.749Z,74.46
2023-02-21T03:41:59.513Z,74.53
2023-02-21T03:44:51.607Z,74.67
2023-02-21T03:47:43.692Z,74.72
2023-02-21T03:50:35.763Z,74.68
2023-02-21T03:53:11.527Z,74.94
2023-02-21T03:55:53.194Z,74.91
2023-02-21T03:58:45.282Z,75.19
2023-02-21T04:01:37.431Z,75.25
2023-02-21T04:04:29.531Z,75.44
2023-02-21T04:07:22.414Z,75.42
2023-02-21T04:10:05.112Z,75.45
2023-02-21T04:12:57.244Z,75.51
2023-02-21T04:15:49.476Z,75.69
2023-02-21T04:18:41.600Z,75.69
2023-02-21T04:21:33.749Z,75.66
2023-02-21T04:24:25.921Z,75.73
2023-02-21T04:27:07.597Z,75.87
2023-02-21T04:29:44.730Z,75.83
2023-02-21T04:32:36.875Z,75.98
2023-02-21T04:35:29.010Z,75.89
2023-02-21T04:38:21.244Z,76.06
2023-02-21T04:41:14.179Z,76.06
2023-02-21T04:44:07.296Z,76.11
2023-02-21T04:46:59.416Z,76.18
2023-02-21T04:49:52.902Z,76.15
2023-02-21T04:52:45.035Z,76.13
2023-02-21T04:55:37.192Z,76.16
2023-02-21T04:58:36.450Z,76.37
2023-02-21T05:01:36.844Z,76.31
2023-02-21T05:04:29.014Z,76.22
2023-02-21T05:07:11.951Z,76.11
2023-02-21T05:10:05.439Z,76.43
2023-02-21T05:12:57.511Z,76.23
2023-02-21T05:15:49.973Z,76.39
2023-02-21T05:18:44.469Z,76.44
2023-02-21T05:21:38.872Z,76.52
2023-02-21T05:24:32.297Z,76.49
2023-02-21T05:27:24.836Z,76.57
2023-02-21T05:30:14.708Z,76.56
2023-02-21T05:33:06.932Z,76.57
2023-02-21T05:35:59.876Z,76.41
2023-02-21T05:38:54.211Z,76.50
2023-02-21T05:41:52.202Z,76.46
2023-02-21T05:44:46.489Z,76.49
2023-02-21T05:47:38.708Z,76.65
2023-02-21T05:50:31.156Z,76.66
2023-02-21T05:53:23.257Z,76.69
2023-02-21T05:56:15.591Z,76.55
2023-02-21T05:59:07.651Z,76.57
2023-02-21T06:02:00.138Z,76.55
2023-02-21T06:04:52.192Z,76.55
2023-02-21T06:07:44.314Z,76.47
2023-02-21T06:10:36.384Z,76.57
2023-02-21T06:13:28.455Z,76.38
2023-02-21T06:16:20.813Z,76.32
2023-02-21T06:19:13.811Z,76.36
2023-02-21T06:22:05.866Z,76.43
2023-02-21T06:24:58.077Z,76.34
2023-02-21T06:27:50.414Z,76.20
2023-02-21T06:30:42.651Z,76.24
2023-02-21T06:33:34.938Z,76.33
2023-02-21T06:36:29.887Z,76.24
2023-02-21T06:39:23.180Z,76.23
2023-02-21T06:42:17.368Z,76.17
2023-02-21T06:45:10.280Z,76.19
2023-02-21T06:47:55.429Z,76.19
2023-02-21T06:50:47.690Z,76.33
2023-02-21T06:53:25.099Z,76.29
2023-02-21T06:56:17.302Z,76.26
2023-02-21T06:59:09.500Z,76.29
2023-02-21T07:02:02.888Z,76.12
2023-02-21T07:04:40.053Z,76.13
2023-02-21T07:07:32.230Z,76.14
2023-02-21T07:10:24.371Z,76.31
2023-02-21T07:12:59.117Z,76.33
2023-02-21T07:15:33.589Z,76.15
2023-02-21T07:18:14.389Z,75.90
2023-02-21T07:21:06.772Z,76.04
2023-02-21T07:23:54.324Z,76.10
2023-02-21T07:26:46.631Z,76.19
2023-02-21T07:29:38.828Z,76.16
2023-02-21T07:32:31.246Z,76.04
2023-02-21T07:35:13.329Z,76.23
2023-02-21T07:38:05.508Z,76.29
2023-02-21T07:40:58.899Z,76.28
2023-02-21T07:43:34.227Z,76.01
2023-02-21T07:46:29.504Z,75.87
2023-02-21T07:49:21.715Z,75.98
2023-02-21T07:52:13.810Z,75.87
2023-02-21T07:54:54.958Z,75.59
2023-02-21T07:57:26.929Z,75.37
2023-02-21T08:00:19.719Z,75.28
2023-02-21T08:03:00.921Z,75.30
2023-02-21T08:05:53.015Z,75.39
2023-02-21T08:08:27.232Z,74.92
2023-02-21T08:11:19.352Z,74.50
2023-02-21T08:14:11.501Z,74.68
2023-02-21T08:17:03.682Z,73.89
2023-02-21T08:19:55.907Z,73.74
2023-02-21T08:22:30.998Z,73.78
2023-02-21T08:25:23.262Z,73.72
2023-02-21T08:28:15.729Z,73.69
2023-02-21T08:30:50.613Z,73.58
2023-02-21T08:33:31.800Z,73.56
2023-02-21T08:36:32.677Z,73.57
2023-02-21T08:39:24.923Z,73.64
2023-02-21T08:42:17.576Z,73.90
2023-02-21T08:45:16.055Z,73.98
2023-02-21T08:47:51.610Z,74.05
2023-02-21T08:50:43.779Z,74.20
2023-02-21T08:53:35.969Z,74.41
2023-02-21T08:56:28.929Z,74.42
2023-02-21T08:59:21.280Z,74.12
2023-02-21T09:02:18.130Z,73.59
2023-02-21T09:05:12.299Z,73.36
2023-02-21T09:08:05.334Z,73.53
2023-02-21T09:11:00.711Z,73.64
2023-02-21T09:13:55.373Z,73.65
2023-02-21T09:16:48.034Z,73.47
2023-02-21T09:19:40.518Z,73.50
2023-02-21T09:22:32.760Z,72.62
2023-02-21T09:25:05.815Z,73.87
2023-02-21T09:28:00.494Z,70.04
2023-02-21T09:30:35.638Z,66.42
2023-02-21T09:33:27.842Z,65.60
2023-02-21T09:36:23.597Z,65.31
2023-02-21T09:39:16.232Z,66.01
2023-02-21T09:41:49.116Z,66.53
2023-02-21T09:44:41.572Z,66.77
2023-02-21T09:47:33.250Z,67.56
2023-02-21T09:50:17.254Z,66.76
2023-02-21T09:52:50.177Z,65.48
2023-02-21T09:55:32.791Z,64.82
2023-02-21T09:58:25.454Z,62.62
2023-02-21T10:01:26.788Z,62.13
2023-02-21T10:04:15.088Z,62.01
2023-02-21T10:07:15.231Z,62.78
2023-02-21T10:09:57.207Z,63.64
2023-02-21T10:12:55.346Z,64.13
2023-02-21T10:15:48.791Z,64.35
2023-02-21T10:18:32.411Z,64.54
2023-02-21T10:21:30.194Z,64.85
2023-02-21T10:24:25.350Z,65.51
2023-02-21T10:27:08.830Z,65.61
2023-02-21T10:30:08.779Z,66.09
2023-02-21T10:32:43.514Z,66.58
2023-02-21T10:35:36.563Z,67.01
2023-02-21T10:38:20.103Z,67.32
2023-02-21T10:40:59.515Z,67.66
2023-02-21T10:43:38.457Z,67.87
2023-02-21T10:46:21.348Z,67.43
2023-02-21T10:48:56.507Z,67.07
2023-02-21T10:51:39.088Z,67.45
2023-02-21T10:54:22.620Z,66.64
2023-02-21T10:57:04.282Z,66.67
2023-02-21T10:59:56.566Z,67.44
2023-02-21T11:02:54.885Z,68.48
2023-02-21T11:05:51.972Z,69.13
2023-02-21T11:08:39.159Z,69.21
2023-02-21T11:11:42.952Z,68.23
2023-02-21T11:14:35.828Z,65.33
2023-02-21T11:17:29.280Z,64.65
2023-02-21T11:20:24.593Z,64.25
2023-02-21T11:23:18.496Z,64.86
2023-02-21T11:26:12.900Z,65.45
2023-02-21T11:29:12.900Z,66.15
2023-02-21T11:32:29.156Z,66.35
2023-02-21T11:35:30.248Z,66.46
2023-02-21T11:38:37.194Z,66.89
2023-02-21T11:41:36.864Z,67.24
2023-02-21T11:44:32.260Z,67.61
2023-02-21T11:47:28.333Z,68.02
2023-02-21T11:50:28.366Z,68.37
2023-02-21T11:53:24.945Z,69.09
2023-02-21T11:56:36.236Z,68.47
2023-02-21T11:59:37.145Z,67.62
2023-02-21T12:02:46.627Z,67.70
2023-02-21T12:05:32.156Z,67.63
2023-02-21T12:08:38.216Z,64.69
2023-02-21T12:11:44.574Z,63.85
2023-02-21T12:14:52.839Z,63.36
2023-02-21T12:18:01.373Z,62.38
2023-02-21T12:21:12.002Z,58.62
2023-02-21T12:24:24.200Z,55.26
2023-02-21T12:27:22.651Z,52.32
2023-02-21T12:30:36.783Z,50.71
2023-02-21T12:33:42.825Z,50.50
2023-02-21T12:36:55.286Z,50.28
2023-02-21T12:40:04.597Z,51.18
2023-02-21T12:43:23.071Z,52.01
2023-02-21T12:46:26.339Z,52.73
2023-02-21T12:49:23.146Z,53.34
2023-02-21T12:52:19.993Z,53.98
2023-02-21T12:55:19.502Z,54.64
2023-02-21T12:58:20.956Z,55.29
2023-02-21T13:01:10.648Z,56.11
2023-02-21T13:04:15.361Z,56.65
2023-02-21T13:06:58.875Z,57.30
2023-02-21T13:09:55.640Z,57.71
2023-02-21T13:12:34.328Z,58.23
2023-02-21T13:15:28.822Z,58.85
2023-02-21T13:18:24.745Z,59.50
2023-02-21T13:21:21.370Z,60.20
2023-02-21T13:24:35.005Z,60.54
2023-02-21T13:27:51.033Z,61.04
2023-02-21T13:30:40.740Z,60.96
2023-02-21T13:33:43.896Z,60.80
2023-02-21T13:36:44.878Z,61.35
2023-02-21T13:39:38.618Z,61.61
2023-02-21T13:42:34.621Z,60.89
2023-02-21T13:45:22.200Z,60.97
2023-02-21T13:48:27.207Z,60.80
2023-02-21T13:51:02.469Z,60.62
2023-02-21T13:54:15.762Z,60.98
2023-02-21T13:57:31.944Z,61.13
2023-02-21T14:00:49.916Z,61.46
2023-02-21T14:03:42.464Z,61.75
2023-02-21T14:06:38.744Z,61.39
2023-02-21T14:09:35.907Z,61.25
2023-02-21T14:12:15.856Z,61.26
2023-02-21T14:14:52.522Z,61.11
2023-02-21T14:17:37.889Z,61.22
2023-02-21T14:20:31.456Z,61.47
2023-02-21T14:23:18.562Z,61.78
2023-02-21T14:26:50.973Z,62.02
2023-02-21T14:29:44.994Z,61.99
2023-02-21T14:32:39.776Z,62.10
2023-02-21T14:35:37.456Z,62.30
2023-02-21T14:38:22.961Z,61.96
2023-02-21T14:41:20.690Z,61.90
2023-02-21T14:44:10.810Z,62.04
2023-02-21T14:47:16.072Z,62.00
2023-02-21T14:50:25.346Z,62.22
2023-02-21T14:53:51.833Z,62.35
2023-02-21T14:56:46.673Z,62.53
2023-02-21T15:00:00.888Z,62.78
2023-02-21T15:02:48.981Z,62.99
2023-02-21T15:05:33.381Z,63.25
2023-02-21T15:08:27.916Z,63.40
2023-02-21T15:11:05.718Z,63.59
2023-02-21T15:13:40.096Z,63.88
2023-02-21T15:16:23.675Z,64.02
2023-02-21T15:19:25.606Z,64.14
2023-02-21T15:22:25.151Z,63.81
2023-02-21T15:25:24.752Z,64.03
2023-02-21T15:28:05.914Z,64.22
2023-02-21T15:30:59.843Z,64.31
2023-02-21T15:33:54.978Z,64.38
2023-02-21T15:36:49.690Z,64.47
2023-02-21T15:39:46.522Z,64.48
2023-02-21T15:42:40.559Z,64.44
2023-02-21T15:45:23.314Z,64.52
2023-02-21T15:48:15.884Z,64.47
2023-02-21T15:51:11.325Z,64.39
2023-02-21T15:54:23.621Z,64.36
2023-02-21T15:57:28.376Z,64.01
2023-02-21T16:00:27.648Z,63.86
2023-02-21T16:03:40.804Z,63.98
2023-02-21T16:06:34.358Z,64.08
2023-02-21T16:09:24.246Z,64.27
2023-02-21T16:12:05.012Z,64.48
2023-02-21T16:14:44.892Z,64.64
2023-02-21T16:17:39.550Z,64.72
2023-02-21T16:20:33.958Z,65.04
2023-02-21T16:23:31.725Z,65.34
2023-02-21T16:26:28.238Z,65.70
2023-02-21T16:29:20.383Z,65.79
2023-02-21T16:31:55.189Z,65.91
2023-02-21T16:34:47.768Z,65.91
2023-02-21T16:37:39.888Z,65.92
2023-02-21T16:40:33.957Z,66.15
2023-02-21T16:43:27.973Z,66.20
2023-02-21T16:46:29.575Z,66.02
2023-02-21T16:49:05.276Z,66.11
2023-02-21T16:51:47.473Z,66.25
2023-02-21T16:54:21.977Z,66.46
2023-02-21T16:57:14.124Z,66.60
2023-02-21T17:00:07.829Z,66.67
2023-02-21T17:03:00.208Z,66.72
2023-02-21T17:05:53.639Z,66.83
2023-02-21T17:08:46.073Z,66.88
2023-02-21T17:11:18.327Z,66.65
2023-02-21T17:14:10.504Z,66.72
2023-02-21T17:16:45.824Z,66.69
2023-02-21T17:19:29.220Z,66.76
2023-02-21T17:22:21.465Z,66.71
2023-02-21T17:25:13.594Z,66.71
2023-02-21T17:28:06.324Z,66.71
2023-02-21T17:30:58.565Z,66.79
2023-02-21T17:33:51.871Z,66.81
2023-02-21T17:36:26.580Z,66.75
2023-02-21T17:38:59.077Z,66.81
2023-02-21T17:41:52.735Z,66.71
2023-02-21T17:44:48.294Z,66.73
2023-02-21T17:47:39.177Z,66.70
2023-02-21T17:50:31.336Z,66.62
2023-02-21T17:53:23.468Z,66.39
2023-02-21T17:56:19.408Z,66.22
2023-02-21T17:59:11.605Z,65.64
2023-02-21T18:01:46.844Z,65.11
2023-02-21T18:04:39.106Z,64.83
2023-02-21T18:07:32.882Z,64.69
2023-02-21T18:10:26.993Z,64.63
2023-02-21T18:13:23.646Z,64.52
2023-02-21T18:16:15.833Z,64.33
2023-02-21T18:18:57.446Z,64.15
2023-02-21T18:21:49.837Z,64.17
2023-02-21T18:24:42.441Z,64.16
2023-02-21T18:27:17.452Z,63.71
2023-02-21T18:30:12.344Z,63.79
2023-02-21T18:32:55.259Z,63.56
2023-02-21T18:35:47.440Z,63.65
2023-02-21T18:38:35.736Z,63.55
2023-02-21T18:41:28.012Z,63.35
2023-02-21T18:44:20.430Z,63.44
2023-02-21T18:47:03.116Z,63.53
2023-02-21T18:49:44.913Z,63.42
2023-02-21T18:52:30.634Z,63.38
2023-02-21T18:55:22.732Z,63.36
2023-02-21T18:58:14.990Z,63.32
2023-02-21T19:01:11.485Z,63.57
2023-02-21T19:04:04.022Z,63.53
2023-02-21T19:06:56.112Z,63.32
2023-02-21T19:09:31.383Z,63.52
2023-02-21T19:12:23.543Z,63.39
2023-02-21T19:15:16.450Z,63.46
2023-02-21T19:17:53.731Z,63.48
2023-02-21T19:20:46.044Z,63.34
2023-02-21T19:23:35.502Z,63.35
2023-02-21T19:26:31.357Z,63.46
2023-02-21T19:29:23.641Z,63.51
2023-02-21T19:31:59.177Z,63.18
2023-02-21T19:34:36.945Z,63.24
2023-02-21T19:37:29.039Z,63.25
2023-02-21T19:40:21.483Z,63.09
2023-02-21T19:42:59.076Z,62.97
2023-02-21T19:45:34.162Z,62.77
2023-02-21T19:48:09.379Z,62.85
2023-02-21T19:50:51.947Z,62.71
2023-02-21T19:53:44.199Z,62.61
2023-02-21T19:56:26.238Z,62.77
2023-02-21T19:59:03.559Z,62.78
2023-02-21T20:01:56.415Z,62.66
2023-02-21T20:04:49.755Z,62.66
2023-02-21T20:07:38.459Z,62.44
2023-02-21T20:10:31.301Z,62.61
2023-02-21T20:13:29.547Z,62.73
2023-02-21T20:16:11.165Z,62.55
2023-02-21T20:19:03.559Z,62.44
2023-02-21T20:21:56.312Z,62.60
2023-02-21T20:24:31.924Z,62.43
2023-02-21T20:27:24.258Z,62.48
2023-02-21T20:29:56.552Z,62.50
2023-02-21T20:32:48.709Z,62.47
2023-02-21T20:35:41.246Z,62.70
2023-02-21T20:38:21.896Z,62.80
2023-02-21T20:41:00.177Z,63.05
2023-02-21T20:43:35.849Z,63.14
2023-02-21T20:46:29.151Z,63.10
2023-02-21T20:49:07.600Z,63.28
2023-02-21T20:52:00.070Z,63.40
2023-02-21T20:54:52.889Z,63.57
2023-02-21T20:57:45.206Z,63.61
2023-02-21T21:00:24.417Z,63.83
2023-02-21T21:03:17.232Z,64.15
2023-02-21T21:05:59.266Z,64.31
2023-02-21T21:08:33.910Z,64.61
2023-02-21T21:11:28.978Z,64.64
2023-02-21T21:14:21.112Z,64.84
2023-02-21T21:17:15.266Z,65.07
2023-02-21T21:20:14.732Z,65.17
2023-02-21T21:23:07.027Z,65.41
2023-02-21T21:26:01.874Z,65.51
2023-02-21T21:28:36.836Z,65.66
2023-02-21T21:31:28.990Z,65.65
2023-02-21T21:34:04.273Z,65.78
2023-02-21T21:36:57.957Z,65.88
2023-02-21T21:39:54.459Z,66.07
2023-02-21T21:42:49.103Z,65.99
2023-02-21T21:45:44.497Z,66.14
2023-02-21T21:48:36.948Z,66.13
2023-02-21T21:51:31.538Z,66.29
2023-02-21T21:54:25.509Z,66.41
2023-02-21T21:57:03.505Z,66.51
2023-02-21T21:59:57.272Z,66.62
2023-02-21T22:02:50.113Z,66.51
2023-02-21T22:05:44.005Z,66.61
2023-02-21T22:08:36.122Z,66.54
2023-02-21T22:11:28.152Z,66.62
2023-02-21T22:14:22.624Z,66.70
2023-02-21T22:17:01.008Z,66.73
2023-02-21T22:19:41.562Z,66.68
2023-02-21T22:22:29.872Z,66.71
2023-02-21T22:25:23.414Z,66.69
2023-02-21T22:28:15.704Z,66.85
2023-02-21T22:31:09.803Z,66.93
2023-02-21T22:34:02.183Z,66.90
2023-02-21T22:36:56.265Z,67.02
2023-02-21T22:39:48.337Z,66.89
2023-02-21T22:42:29.208Z,67.06
2023-02-21T22:45:22.284Z,67.04
2023-02-21T22:48:04.992Z,67.10
2023-02-21T22:50:44.359Z,67.05
2023-02-21T22:53:36.442Z,67.13
2023-02-21T22:56:30.342Z,67.16
2023-02-21T22:59:24.631Z,67.21
2023-02-21T23:01:58.313Z,67.37
2023-02-21T23:04:42.006Z,67.14
2023-02-21T23:07:34.308Z,67.26
2023-02-21T23:10:16.537Z,67.22
2023-02-21T23:13:14.194Z,67.12
2023-02-21T23:16:06.776Z,67.30
2023-02-21T23:18:59.047Z,67.06
2023-02-21T23:21:49.624Z,67.20
2023-02-21T23:24:24.679Z,67.26
2023-02-21T23:27:16.845Z,67.42
2023-02-21T23:30:10.486Z,67.44
2023-02-21T23:33:02.442Z,67.38
2023-02-21T23:35:56.324Z,67.49
2023-02-21T23:38:29.040Z,67.39
2023-02-21T23:41:09.039Z,67.32
2023-02-21T23:44:01.175Z,67.54
2023-02-21T23:46:53.929Z,67.52
2023-02-21T23:49:46.109Z,67.51
2023-02-21T23:52:38.578Z,67.64
2023-02-21T23:55:13.511Z,67.73
2023-02-21T23:57:50.497Z,67.88
